createdAt,value
2018-03-26T00:01:41.623Z,37.60
2018-03-26T00:04:10.537Z,39.75
2018-03-26T00:06:38.771Z,42.67
2018-03-26T00:09:07.675Z,41.70
2018-03-26T00:11:35.812Z,38.35
2018-03-26T00:14:04.020Z,42.58
2018-03-26T00:16:32.231Z,35.75
2018-03-26T00:19:00.464Z,37.17
2018-03-26T00:21:28.754Z,34.80
2018-03-26T00:23:57.682Z,38.50
2018-03-26T00:26:25.816Z,35.08
2018-03-26T00:28:54.737Z,35.85
2018-03-26T00:31:22.898Z,39.78
2018-03-26T00:33:51.034Z,37.88
2018-03-26T00:36:19.179Z,37.50
2018-03-26T00:38:47.311Z,35.13
2018-03-26T00:41:15.554Z,34.13
2018-03-26T00:43:44.461Z,34.50
2018-03-26T00:46:13.383Z,34.95
2018-03-26T00:48:41.503Z,41.10
2018-03-26T00:51:09.648Z,41.05
2018-03-26T00:53:43.678Z,35.75
2018-03-26T00:56:11.860Z,36.60
2018-03-26T00:58:40.009Z,36.95
2018-03-26T01:01:08.150Z,34.83
2018-03-26T01:03:36.289Z,38.28
2018-03-26T01:06:05.198Z,42.35
2018-03-26T01:08:33.336Z,38.72
2018-03-26T01:11:01.499Z,38.85
2018-03-26T01:13:29.632Z,38.13
2018-03-26T01:15:57.767Z,38.47
2018-03-26T01:18:26.711Z,40.25
2018-03-26T01:20:55.841Z,38.50
2018-03-26T01:23:24.797Z,39.30
2018-03-26T01:25:52.930Z,35.55
2018-03-26T01:28:21.090Z,40.75
2018-03-26T01:30:49.226Z,35.40
2018-03-26T01:33:17.374Z,30.92
2018-03-26T01:35:45.499Z,37.60
2018-03-26T01:38:13.688Z,34.58
2018-03-26T01:40:42.574Z,34.08
2018-03-26T01:43:10.754Z,34.58
2018-03-26T01:45:38.894Z,36.08
2018-03-26T01:48:07.075Z,33.80
2018-03-26T01:50:35.211Z,37.22
2018-03-26T01:53:04.139Z,36.17
2018-03-26T01:55:33.112Z,36.83
2018-03-26T01:58:01.259Z,38.05
2018-03-26T02:00:29.410Z,40.85
2018-03-26T02:02:57.583Z,37.38
2018-03-26T02:05:25.759Z,36.53
2018-03-26T02:07:54.286Z,36.40
2018-03-26T02:10:22.423Z,35.85
2018-03-26T02:12:50.626Z,40.42
2018-03-26T02:15:18.787Z,40.15
2018-03-26T02:17:46.927Z,39.53
2018-03-26T02:20:15.094Z,36.88
2018-03-26T02:22:43.234Z,39.45
2018-03-26T02:25:12.143Z,39.17
2018-03-26T02:27:40.273Z,37.78
2018-03-26T02:30:08.416Z,37.22
2018-03-26T02:32:37.351Z,38.53
2018-03-26T02:35:06.246Z,42.60
2018-03-26T02:37:35.182Z,35.35
2018-03-26T02:40:03.366Z,33.17
2018-03-26T02:42:31.506Z,38.10
2018-03-26T02:44:59.654Z,38.97
2018-03-26T02:47:27.799Z,37.95
2018-03-26T02:49:55.999Z,31.80
2018-03-26T02:52:24.129Z,34.05
2018-03-26T02:54:53.042Z,35.60
2018-03-26T02:57:21.186Z,34.80
2018-03-26T02:59:49.331Z,35.35
2018-03-26T03:02:17.542Z,32.42
2018-03-26T03:04:45.711Z,36.65
2018-03-26T03:07:13.839Z,37.35
2018-03-26T03:09:42.733Z,40.85
2018-03-26T03:12:10.873Z,34.90
2018-03-26T03:14:39.011Z,41.05
2018-03-26T03:17:07.179Z,37.20
2018-03-26T03:19:35.342Z,37.55
2018-03-26T03:22:03.556Z,39.47
2018-03-26T03:24:31.686Z,40.80
2018-03-26T03:27:00.613Z,38.70
2018-03-26T03:29:28.751Z,33.45
2018-03-26T03:31:56.910Z,32.00
2018-03-26T03:34:25.042Z,35.13
2018-03-26T03:36:54.075Z,35.53
2018-03-26T03:39:22.210Z,39.22
2018-03-26T03:41:50.370Z,43.00
2018-03-26T03:44:18.493Z,33.03
2018-03-26T03:46:46.633Z,38.55
2018-03-26T03:49:14.799Z,37.08
2018-03-26T03:51:42.957Z,41.42
2018-03-26T03:54:11.103Z,38.47
2018-03-26T03:56:39.258Z,43.00
2018-03-26T03:59:07.387Z,37.55
2018-03-26T04:01:35.557Z,38.50
2018-03-26T04:04:03.728Z,36.75
2018-03-26T04:06:32.627Z,37.70
2018-03-26T04:09:00.774Z,38.65
2018-03-26T04:11:29.680Z,36.50
2018-03-26T04:13:58.588Z,35.20
2018-03-26T04:16:26.798Z,36.50
2018-03-26T04:18:54.954Z,39.03
2018-03-26T04:21:23.089Z,35.53
2018-03-26T04:23:51.225Z,37.85
2018-03-26T04:26:19.346Z,34.22
2018-03-26T04:28:47.491Z,39.15
2018-03-26T04:31:16.387Z,36.28
2018-03-26T04:33:45.301Z,38.33
2018-03-26T04:36:13.425Z,35.20
2018-03-26T04:38:42.338Z,38.00
2018-03-26T04:41:10.474Z,37.53
2018-03-26T04:43:38.628Z,35.72
2018-03-26T04:46:06.755Z,35.53
2018-03-26T04:48:34.916Z,37.75
2018-03-26T04:51:03.187Z,34.38
2018-03-26T04:53:32.099Z,43.95
2018-03-26T04:56:00.264Z,39.70
2018-03-26T04:58:29.154Z,38.70
2018-03-26T05:00:57.334Z,45.65
2018-03-26T05:03:38.134Z,38.35
2018-03-26T05:06:06.281Z,41.72
2018-03-26T05:08:34.426Z,40.38
2018-03-26T05:11:03.331Z,41.25
2018-03-26T05:13:31.470Z,40.35
2018-03-26T05:16:00.382Z,38.80
2018-03-26T05:18:28.508Z,36.75
2018-03-26T05:20:56.658Z,43.65
2018-03-26T05:23:24.855Z,35.75
2018-03-26T05:25:53.018Z,35.55
2018-03-26T05:28:21.151Z,33.70
2018-03-26T05:30:50.210Z,36.78
2018-03-26T05:33:18.333Z,36.28
2018-03-26T05:35:46.536Z,34.88
2018-03-26T05:38:14.658Z,34.60
2018-03-26T05:40:42.812Z,37.90
2018-03-26T05:43:11.698Z,39.47
2018-03-26T05:45:40.610Z,43.25
2018-03-26T05:48:08.738Z,40.97
2018-03-26T05:50:36.894Z,41.88
2018-03-26T05:53:05.026Z,45.25
2018-03-26T05:55:33.170Z,39.60
2018-03-26T05:58:02.064Z,43.95
2018-03-26T06:00:30.978Z,47.38
2018-03-26T06:02:59.139Z,41.70
2018-03-26T06:05:27.284Z,42.13
2018-03-26T06:07:56.200Z,42.42
2018-03-26T06:10:25.119Z,43.83
2018-03-26T06:12:53.283Z,46.35
2018-03-26T06:15:21.422Z,43.45
2018-03-26T06:17:50.334Z,39.40
2018-03-26T06:20:18.485Z,43.53
2018-03-26T06:22:46.640Z,39.08
2018-03-26T06:25:14.783Z,40.47
2018-03-26T06:27:43.698Z,43.42
2018-03-26T06:30:12.602Z,44.17
2018-03-26T06:32:40.850Z,43.20
2018-03-26T06:35:08.954Z,42.28
2018-03-26T06:51:04.524Z,72.00
2018-03-26T06:53:32.666Z,66.55
2018-03-26T06:56:00.974Z,65.78
2018-03-26T06:58:29.122Z,68.57
2018-03-26T07:00:57.244Z,65.35
2018-03-26T07:03:25.387Z,73.87
2018-03-26T07:05:54.096Z,89.28
2018-03-26T07:08:22.241Z,68.53
2018-03-26T07:10:50.726Z,60.05
2018-03-26T07:13:18.883Z,58.28
2018-03-26T07:15:47.023Z,60.33
2018-03-26T07:18:15.169Z,57.75
2018-03-26T07:20:43.315Z,63.50
2018-03-26T07:23:12.322Z,72.25
2018-03-26T07:25:40.470Z,50.80
2018-03-26T07:28:09.402Z,55.97
2018-03-26T07:30:37.603Z,47.33
2018-03-26T07:33:05.729Z,49.75
2018-03-26T07:35:33.874Z,48.50
2018-03-26T07:38:02.014Z,39.90
2018-03-26T07:40:30.163Z,39.78
2018-03-26T07:42:58.291Z,45.65
2018-03-26T07:45:26.440Z,39.42
2018-03-26T07:47:54.567Z,44.55
2018-03-26T07:50:22.715Z,43.65
2018-03-26T07:52:52.376Z,43.58
2018-03-26T07:55:20.552Z,42.35
2018-03-26T07:57:48.677Z,42.72
2018-03-26T08:00:16.827Z,37.75
2018-03-26T08:02:45.750Z,37.47
2018-03-26T08:05:13.910Z,35.15
2018-03-26T08:07:42.060Z,40.08
2018-03-26T08:10:10.277Z,37.42
2018-03-26T08:12:38.430Z,41.58
2018-03-26T08:15:07.426Z,42.30
2018-03-26T08:17:35.565Z,39.30
2018-03-26T08:20:04.482Z,39.10
2018-03-26T08:22:32.631Z,40.28
2018-03-26T08:25:01.557Z,38.47
2018-03-26T08:27:29.704Z,42.38
2018-03-26T08:29:58.671Z,40.03
2018-03-26T08:32:26.795Z,44.20
2018-03-26T08:34:54.938Z,43.45
2018-03-26T08:37:23.088Z,43.80
2018-03-26T08:39:51.538Z,43.03
2018-03-26T08:42:19.753Z,44.03
2018-03-26T08:44:47.834Z,42.72
2018-03-26T08:47:15.988Z,47.08
2018-03-26T08:49:44.190Z,45.17
2018-03-26T08:52:12.339Z,45.08
2018-03-26T08:54:40.656Z,44.05
2018-03-26T08:57:09.944Z,37.33
2018-03-26T08:59:38.228Z,43.33
2018-03-26T09:02:06.491Z,38.37
2018-03-26T09:04:34.763Z,38.73
2018-03-26T09:07:02.919Z,44.20
2018-03-26T09:09:31.064Z,37.70
2018-03-26T09:12:00.018Z,41.70
2018-03-26T09:14:28.150Z,49.35
2018-03-26T09:16:56.307Z,40.17
2018-03-26T09:19:25.203Z,37.73
2018-03-26T09:21:53.359Z,38.08
2018-03-26T09:24:21.487Z,41.20
2018-03-26T09:26:49.718Z,35.97
2018-03-26T09:29:17.920Z,41.37
2018-03-26T09:31:46.065Z,39.40
2018-03-26T09:34:14.215Z,41.50
2018-03-26T09:36:42.342Z,44.67
2018-03-26T09:39:10.492Z,43.13
2018-03-26T09:41:38.620Z,45.93
2018-03-26T09:44:06.779Z,43.65
2018-03-26T09:46:34.922Z,40.90
2018-03-26T09:49:03.299Z,42.03
2018-03-26T09:51:31.464Z,41.37
2018-03-26T09:53:59.603Z,42.65
2018-03-26T09:56:28.504Z,44.60
2018-03-26T09:58:57.421Z,43.13
2018-03-26T10:01:25.566Z,48.70
2018-03-26T10:03:54.088Z,44.27
2018-03-26T10:06:22.204Z,45.72
2018-03-26T10:08:51.118Z,42.10
2018-03-26T10:11:19.257Z,46.60
2018-03-26T10:13:47.394Z,46.43
2018-03-26T10:16:15.524Z,42.10
2018-03-26T10:18:44.434Z,47.40
2018-03-26T10:21:12.562Z,48.33
2018-03-26T10:23:40.710Z,48.10
2018-03-26T10:26:09.607Z,47.40
2018-03-26T10:28:37.752Z,46.73
2018-03-26T10:31:05.878Z,48.87
2018-03-26T10:33:34.068Z,50.37
2018-03-26T10:36:02.206Z,44.80
2018-03-26T10:38:31.127Z,44.73
2018-03-26T10:40:59.275Z,45.63
2018-03-26T10:43:27.484Z,47.30
2018-03-26T10:45:55.755Z,48.50
2018-03-26T10:48:23.886Z,46.70
2018-03-26T10:50:52.038Z,45.50
2018-03-26T10:53:20.166Z,45.97
2018-03-26T10:55:48.332Z,49.17
2018-03-26T10:58:16.467Z,46.73
2018-03-26T11:00:44.623Z,43.47
2018-03-26T11:03:12.749Z,49.90
2018-03-26T11:05:40.945Z,55.27
2018-03-26T11:08:09.030Z,51.00
2018-03-26T11:10:37.176Z,49.23
2018-03-26T11:13:05.463Z,48.13
2018-03-26T11:15:33.607Z,53.93
2018-03-26T11:18:01.732Z,45.67
2018-03-26T11:20:29.896Z,44.87
2018-03-26T11:22:58.813Z,49.83
2018-03-26T11:25:26.955Z,53.70
2018-03-26T11:27:55.191Z,50.43
2018-03-26T11:30:23.330Z,48.83
2018-03-26T11:32:52.242Z,49.37
2018-03-26T11:35:20.389Z,47.57
2018-03-26T11:37:48.532Z,48.20
2018-03-26T11:40:16.659Z,51.33
2018-03-26T11:42:45.562Z,52.43
2018-03-26T11:45:13.700Z,49.93
2018-03-26T11:47:42.614Z,50.63
2018-03-26T11:50:10.747Z,54.23
2018-03-26T11:52:38.890Z,50.10
2018-03-26T11:55:07.026Z,51.20
2018-03-26T11:57:35.178Z,52.13
2018-03-26T12:00:03.341Z,46.70
2018-03-26T12:02:31.482Z,51.70
2018-03-26T12:04:59.635Z,48.93
2018-03-26T12:07:27.783Z,58.43
2018-03-26T12:09:55.914Z,50.00
2018-03-26T12:12:24.065Z,56.40
2018-03-26T12:14:52.260Z,57.73
2018-03-26T12:17:21.910Z,59.40
2018-03-26T12:20:01.886Z,57.40
2018-03-26T12:22:30.827Z,56.00
2018-03-26T12:25:05.170Z,48.90
2018-03-26T12:27:33.339Z,51.53
2018-03-26T12:30:09.034Z,49.47
2018-03-26T12:32:37.189Z,46.23
2018-03-26T12:35:17.010Z,55.93
2018-03-26T12:37:45.166Z,47.67
2018-03-26T12:53:41.511Z,63.93
2018-03-26T12:56:09.650Z,46.50
2018-03-26T12:58:50.306Z,51.03
2018-03-26T13:01:30.175Z,54.70
2018-03-26T13:03:58.382Z,53.30
2018-03-26T13:06:26.548Z,46.53
2018-03-26T13:08:55.426Z,40.67
2018-03-26T13:11:23.577Z,42.87
2018-03-26T13:13:51.851Z,44.37
2018-03-26T13:16:20.061Z,43.63
2018-03-26T13:18:48.200Z,48.00
2018-03-26T13:21:16.360Z,40.90
2018-03-26T13:23:44.507Z,36.87
2018-03-26T13:26:12.667Z,40.80
2018-03-26T13:28:40.797Z,39.60
2018-03-26T13:31:08.956Z,35.03
2018-03-26T13:33:37.097Z,33.17
2018-03-26T13:36:06.383Z,35.03
2018-03-26T13:38:34.503Z,36.10
2018-03-26T13:41:02.652Z,37.27
2018-03-26T13:43:30.825Z,36.70
2018-03-26T13:45:58.955Z,35.70
2018-03-26T13:48:27.102Z,31.40
2018-03-26T13:50:55.247Z,34.43
2018-03-26T13:53:23.422Z,28.70
2018-03-26T13:55:51.567Z,26.83
2018-03-26T13:58:19.713Z,28.73
2018-03-26T14:00:47.890Z,28.60
2018-03-26T14:03:16.048Z,30.67
2018-03-26T14:05:44.260Z,34.70
2018-03-26T14:08:24.271Z,33.73
2018-03-26T14:24:19.913Z,35.93
2018-03-26T14:26:48.060Z,41.93
2018-03-26T14:29:16.975Z,39.63
2018-03-26T14:31:45.125Z,41.27
2018-03-26T14:34:14.046Z,43.10
2018-03-26T14:36:42.170Z,43.03
2018-03-26T14:39:10.319Z,40.27
2018-03-26T14:41:38.491Z,43.50
2018-03-26T14:44:06.723Z,38.53
2018-03-26T14:46:34.866Z,47.43
2018-03-26T14:49:03.784Z,44.80
2018-03-26T14:51:31.929Z,43.43
2018-03-26T14:54:00.864Z,45.60
2018-03-26T14:56:29.018Z,49.77
2018-03-26T14:58:57.287Z,52.10
2018-03-26T15:01:25.689Z,54.97
2018-03-26T15:03:59.379Z,55.10
2018-03-26T15:06:27.530Z,56.37
2018-03-26T15:08:55.668Z,53.90
2018-03-26T15:11:23.819Z,55.93
2018-03-26T15:13:52.331Z,49.60
2018-03-26T15:16:20.642Z,52.90
2018-03-26T15:18:48.773Z,54.93
2018-03-26T15:21:16.918Z,50.43
2018-03-26T15:23:45.047Z,56.97
2018-03-26T15:26:13.209Z,48.73
2018-03-26T15:28:41.388Z,53.80
2018-03-26T15:31:10.290Z,54.10
2018-03-26T15:33:38.425Z,51.60
2018-03-26T15:36:06.565Z,52.03
2018-03-26T15:38:34.693Z,47.57
2018-03-26T15:41:03.183Z,53.63
2018-03-26T15:43:31.319Z,55.10
2018-03-26T15:45:59.454Z,50.40
2018-03-26T15:48:27.595Z,54.73
2018-03-26T15:50:55.743Z,53.50
2018-03-26T15:53:24.640Z,56.27
2018-03-26T15:55:53.566Z,62.23
2018-03-26T15:58:21.702Z,58.57
2018-03-26T16:00:50.602Z,56.20
2018-03-26T16:03:24.355Z,52.40
2018-03-26T16:05:52.479Z,56.90
2018-03-26T16:08:20.626Z,56.70
2018-03-26T16:10:49.528Z,59.67
2018-03-26T16:13:18.440Z,60.43
2018-03-26T16:15:46.607Z,66.47
2018-03-26T16:18:14.751Z,67.97
2018-03-26T16:20:43.645Z,54.33
2018-03-26T16:23:12.570Z,56.57
2018-03-26T16:25:40.702Z,57.37
2018-03-26T16:28:09.625Z,55.50
2018-03-26T16:30:37.751Z,55.90
2018-03-26T16:33:06.254Z,53.03
2018-03-26T16:35:35.158Z,55.70
2018-03-26T16:38:03.290Z,57.63
2018-03-26T16:40:32.208Z,57.03
2018-03-26T16:43:05.281Z,78.70
2018-03-26T16:45:34.176Z,59.90
2018-03-26T16:48:03.077Z,65.13
2018-03-26T16:50:31.227Z,61.60
2018-03-26T16:52:59.530Z,58.67
2018-03-26T16:55:27.686Z,58.03
2018-03-26T16:57:56.574Z,61.27
2018-03-26T17:00:24.722Z,59.23
2018-03-26T17:02:52.879Z,57.83
2018-03-26T17:05:21.017Z,76.57
2018-03-26T17:07:49.143Z,67.83
2018-03-26T17:10:18.063Z,58.53
2018-03-26T17:12:46.489Z,61.23
2018-03-26T17:15:14.848Z,60.97
2018-03-26T17:17:42.984Z,58.03
2018-03-26T17:20:11.133Z,82.03
2018-03-26T17:22:39.271Z,76.10
2018-03-26T17:25:07.415Z,102.93
2018-03-26T17:27:35.610Z,112.73
2018-03-26T17:30:04.492Z,102.53
2018-03-26T17:32:32.614Z,98.50
2018-03-26T17:35:00.770Z,106.33
2018-03-26T17:37:28.908Z,90.17
2018-03-26T17:39:57.059Z,73.87
2018-03-26T17:42:25.199Z,58.67
2018-03-26T17:44:54.100Z,55.77
2018-03-26T17:47:22.259Z,54.60
2018-03-26T17:49:51.147Z,54.83
2018-03-26T17:52:20.054Z,53.60
2018-03-26T17:54:48.200Z,55.93
2018-03-26T17:57:16.361Z,57.27
2018-03-26T17:59:44.506Z,59.57
2018-03-26T18:02:12.667Z,57.10
2018-03-26T18:04:40.796Z,67.07
2018-03-26T18:07:09.706Z,51.77
2018-03-26T18:09:37.843Z,61.97
2018-03-26T18:12:05.986Z,53.27
2018-03-26T18:14:34.107Z,51.60
2018-03-26T18:17:03.055Z,57.50
2018-03-26T18:19:31.171Z,56.17
2018-03-26T18:22:00.154Z,64.23
2018-03-26T18:24:29.053Z,62.87
2018-03-26T18:26:57.963Z,56.43
2018-03-26T18:29:26.096Z,55.23
2018-03-26T18:31:55.010Z,50.30
2018-03-26T18:34:23.168Z,51.17
2018-03-26T18:36:52.058Z,52.83
2018-03-26T18:39:20.971Z,50.13
2018-03-26T18:41:49.116Z,56.63
2018-03-26T18:44:22.505Z,52.23
2018-03-26T18:46:53.173Z,53.83
2018-03-26T18:49:21.329Z,51.60
2018-03-26T18:51:56.468Z,49.03
2018-03-26T18:54:26.442Z,52.90
2018-03-26T18:56:55.258Z,51.47
2018-03-26T18:59:26.230Z,52.40
2018-03-26T19:01:54.648Z,49.73
2018-03-26T19:04:24.884Z,55.47
2018-03-26T19:06:53.006Z,51.63
2018-03-26T19:09:26.854Z,50.93
2018-03-26T19:11:57.843Z,53.40
2018-03-26T19:14:27.266Z,48.83
2018-03-26T19:16:56.544Z,47.60
2018-03-26T19:19:27.338Z,57.00
2018-03-26T19:21:57.743Z,49.60
2018-03-26T19:24:29.179Z,45.93
2018-03-26T19:26:59.019Z,49.87
2018-03-26T19:29:27.914Z,45.00
2018-03-26T19:31:56.390Z,50.50
2018-03-26T19:34:27.775Z,48.33
2018-03-26T19:36:58.742Z,44.07
2018-03-26T19:39:26.890Z,47.60
2018-03-26T19:41:57.047Z,45.33
2018-03-26T19:44:30.750Z,48.03
2018-03-26T19:46:59.639Z,49.07
2018-03-26T19:49:29.810Z,48.20
2018-03-26T19:52:02.479Z,48.37
2018-03-26T19:54:32.950Z,49.37
2018-03-26T19:57:03.411Z,55.80
2018-03-26T19:59:33.383Z,56.73
2018-03-26T20:02:07.256Z,57.10
2018-03-26T20:04:36.674Z,48.60
2018-03-26T20:07:07.462Z,50.50
2018-03-26T20:09:39.659Z,49.73
2018-03-26T20:12:09.526Z,50.30
2018-03-26T20:14:39.538Z,50.17
2018-03-26T20:17:08.276Z,42.23
2018-03-26T20:19:36.438Z,43.57
2018-03-26T20:22:04.791Z,45.27
2018-03-26T20:24:32.947Z,47.20
2018-03-26T20:27:01.110Z,48.40
2018-03-26T20:29:29.263Z,44.50
2018-03-26T20:31:57.414Z,48.27
2018-03-26T20:34:25.609Z,43.47
2018-03-26T20:36:53.731Z,53.17
2018-03-26T20:39:21.860Z,62.73
2018-03-26T20:41:50.008Z,59.60
2018-03-26T20:44:18.901Z,68.90
2018-03-26T20:46:47.062Z,60.60
2018-03-26T20:49:15.202Z,70.77
2018-03-26T20:51:43.470Z,56.70
2018-03-26T20:54:11.610Z,45.47
2018-03-26T20:56:39.784Z,47.70
2018-03-26T20:59:08.807Z,46.37
2018-03-26T21:01:37.005Z,48.50
2018-03-26T21:04:05.142Z,44.50
2018-03-26T21:06:33.322Z,49.73
2018-03-26T21:09:01.547Z,45.67
2018-03-26T21:11:29.718Z,45.50
2018-03-26T21:13:57.869Z,54.35
2018-03-26T21:16:25.999Z,46.27
2018-03-26T21:18:59.329Z,46.03
2018-03-26T21:21:28.680Z,53.65
2018-03-26T21:23:56.884Z,48.90
2018-03-26T21:26:25.033Z,62.80
2018-03-26T21:28:53.202Z,49.35
2018-03-26T21:31:21.385Z,54.00
2018-03-26T21:33:49.570Z,59.85
2018-03-26T21:36:17.876Z,54.22
2018-03-26T21:38:46.050Z,54.08
2018-03-26T21:41:14.201Z,59.47
2018-03-26T21:43:42.415Z,57.17
2018-03-26T21:46:10.785Z,66.20
2018-03-26T21:48:39.748Z,53.37
2018-03-26T21:51:08.653Z,48.00
2018-03-26T21:53:36.822Z,51.42
2018-03-26T21:56:04.984Z,45.38
2018-03-26T21:58:33.133Z,58.53
2018-03-26T22:01:01.283Z,50.58
2018-03-26T22:03:30.199Z,50.40
2018-03-26T22:05:58.349Z,60.38
2018-03-26T22:08:27.891Z,55.47
2018-03-26T22:10:56.151Z,56.33
2018-03-26T22:13:24.294Z,51.13
2018-03-26T22:15:52.450Z,50.63
2018-03-26T22:18:21.365Z,54.80
2018-03-26T22:20:49.524Z,52.57
2018-03-26T22:23:17.674Z,57.40
2018-03-26T22:25:45.824Z,54.30
2018-03-26T22:28:18.683Z,45.00
2018-03-26T22:30:48.446Z,42.90
2018-03-26T22:33:16.576Z,40.00
2018-03-26T22:35:44.782Z,39.05
2018-03-26T22:38:13.694Z,43.15
2018-03-26T22:40:42.679Z,41.20
2018-03-26T22:43:10.825Z,48.13
2018-03-26T22:45:39.094Z,44.15
2018-03-26T22:48:08.040Z,40.30
2018-03-26T22:50:36.219Z,43.10
2018-03-26T22:53:04.372Z,49.70
2018-03-26T22:55:32.523Z,43.10
2018-03-26T22:58:01.423Z,50.30
2018-03-26T23:00:29.623Z,53.15
2018-03-26T23:02:57.793Z,53.72
2018-03-26T23:05:25.944Z,45.92
2018-03-26T23:07:54.127Z,52.88
2018-03-26T23:10:22.378Z,47.58
2018-03-26T23:12:51.311Z,48.67
2018-03-26T23:15:19.472Z,48.10
2018-03-26T23:17:47.612Z,46.72
2018-03-26T23:20:16.533Z,55.28
2018-03-26T23:22:48.577Z,45.63
2018-03-26T23:25:17.483Z,47.50
2018-03-26T23:27:45.622Z,45.70
2018-03-26T23:30:13.938Z,45.95
2018-03-26T23:32:42.079Z,45.80
2018-03-26T23:35:10.246Z,57.38
2018-03-26T23:37:38.406Z,39.40
2018-03-26T23:40:06.571Z,56.78
2018-03-26T23:42:34.702Z,46.92
2018-03-26T23:45:02.844Z,43.25
2018-03-26T23:47:31.309Z,52.80
2018-03-26T23:50:00.198Z,47.80
2018-03-26T23:52:28.485Z,51.58
2018-03-26T23:54:56.635Z,51.58
2018-03-26T23:57:25.558Z,49.67
2018-03-26T23:59:53.727Z,47.05
